Time;durP1;ratioP1;P1;durP2;ratioP2;P2;SDS_P1;SDS_P2;PMS_P1;PMS_P2;Temp;Humidity;BMP_temperature;BMP_pressure;BME280_temperature;BME280_humidity;BME280_pressure;Samples;Min_cycle;Max_cycle;Signal;HPM_P1;HPM_P2
2022/01/26 00:05:48;;;;;;;12.40;5.72;;;;;;;0.84;78.72;99707.78;2629969;28;20048;-79
2022/01/26 00:07:03;;;;;;;;;;;;;;;0.81;79.09;99702.50;2633120;28;20044;-79
2022/01/26 00:08:24;;;;;;;11.10;5.57;;;;;;;0.81;79.17;99702.50;2632691;28;19924;-82
2022/01/26 00:09:39;;;;;;;12.55;6.10;;;;;;;0.80;79.03;99705.91;2630079;28;20052;-79
2022/01/26 00:10:55;;;;;;;12.02;6.10;;;;;;;0.86;78.48;99706.13;2631250;28;20545;-79
2022/01/26 00:12:10;;;;;;;13.32;6.57;;;;;;;0.76;79.18;99707.50;2631411;28;20044;-78
2022/01/26 00:13:26;;;;;;;11.50;5.68;;;;;;;0.87;78.77;99704.41;2632489;28;20093;-78
2022/01/26 00:14:43;;;;;;;12.57;5.97;;;;;;;0.91;79.03;99701.06;2631073;28;20051;-81
2022/01/26 00:16:02;;;;;;;11.35;6.15;;;;;;;0.78;79.63;99697.25;2630601;28;20047;-80
2022/01/26 00:17:17;;;;;;;12.45;6.28;;;;;;;0.91;78.96;99706.22;2632090;28;20047;-78
2022/01/26 00:18:36;;;;;;;10.23;5.35;;;;;;;0.86;79.11;99703.53;2631512;28;20469;-81
2022/01/26 00:20:02;;;;;;;11.65;5.07;;;;;;;0.84;79.31;99706.06;2631332;28;20137;-79
2022/01/26 00:21:28;;;;;;;13.52;6.20;;;;;;;0.80;79.36;99705.91;2630093;28;20051;-78
2022/01/26 00:29:57;;;;;;;10.90;5.75;;;;;;;0.65;79.83;99704.59;2631929;28;20056;-80
2022/01/26 00:32:56;;;;;;;12.00;5.55;;;;;;;0.65;79.85;99702.00;2631466;28;20051;-79
2022/01/26 00:39:26;;;;;;;11.98;6.07;;;;;;;0.67;80.13;99702.06;2600654;28;20050;-79
2022/01/26 00:40:51;;;;;;;13.07;6.18;;;;;;;0.69;79.84;99708.16;2621528;28;20409;-79
2022/01/26 00:42:07;;;;;;;10.52;5.28;;;;;;;0.69;79.80;99703.00;2626735;28;20048;-80
2022/01/26 00:43:26;;;;;;;11.70;5.50;;;;;;;0.69;80.06;99696.13;2626865;28;20403;-80
2022/01/26 00:44:46;;;;;;;11.48;6.15;;;;;;;0.60;80.21;99703.56;2630351;28;20582;-79
2022/01/26 00:46:06;;;;;;;10.15;5.22;;;;;;;0.59;80.14;99700.94;2627778;28;20047;-79
2022/01/26 00:47:21;;;;;;;10.68;5.75;;;;;;;0.61;80.00;99705.31;2631809;28;20086;-79
2022/01/26 00:48:38;;;;;;;10.95;5.13;;;;;;;0.67;79.37;99708.06;2631186;28;20055;-79
2022/01/26 00:49:58;;;;;;;11.80;5.35;;;;;;;0.62;79.98;99711.34;2627841;28;20047;-80
2022/01/26 00:51:19;;;;;;;12.00;5.20;;;;;;;0.61;80.23;99709.59;2626495;28;20453;-79
2022/01/26 00:52:41;;;;;;;13.32;6.22;;;;;;;0.58;80.63;99707.81;2633846;28;20128;-79
2022/01/26 00:54:04;;;;;;;11.90;6.03;;;;;;;0.53;80.56;99704.19;2630160;28;20048;-80
2022/01/26 00:55:20;;;;;;;10.45;5.68;;;;;;;0.54;79.94;99705.94;2630864;28;20066;-79
2022/01/26 00:56:36;;;;;;;8.43;3.90;;;;;;;0.63;77.34;99702.78;2632718;28;20083;-80
2022/01/26 00:57:52;;;;;;;9.27;4.70;;;;;;;0.70;77.52;99700.47;2631028;28;20052;-79
2022/01/26 00:59:07;;;;;;;6.75;4.00;;;;;;;0.65;77.48;99696.84;2627224;28;20054;-80
2022/01/26 01:00:26;;;;;;;6.90;3.53;;;;;;;0.74;76.71;99691.09;2624240;28;20079;-79
2022/01/26 01:01:42;;;;;;;6.28;3.38;;;;;;;0.74;76.76;99697.97;2629534;28;20044;-78
2022/01/26 01:02:58;;;;;;;5.80;2.92;;;;;;;0.80;75.55;99696.47;2627977;28;20059;-79
2022/01/26 01:04:13;;;;;;;4.90;2.80;;;;;;;0.84;74.62;99697.47;2626583;28;20040;-78
2022/01/26 01:05:36;;;;;;;5.20;3.08;;;;;;;0.81;75.24;99697.34;2626184;28;20052;-82
2022/01/26 01:06:58;;;;;;;5.45;3.20;;;;;;;0.89;74.62;99701.03;2625629;28;20387;-82
2022/01/26 01:08:17;;;;;;;4.97;2.83;;;;;;;0.82;75.22;99699.09;2633722;28;20051;-79
2022/01/26 01:09:34;;;;;;;6.13;3.38;;;;;;;0.80;74.75;99696.47;2620455;28;20048;-80
2022/01/26 01:10:51;;;;;;;6.05;2.80;;;;;;;0.85;74.56;99699.22;2621973;28;20052;-79
2022/01/26 01:12:07;;;;;;;6.88;3.47;;;;;;;0.74;76.36;99698.84;2626281;28;20127;-79
2022/01/26 01:13:33;;;;;;;7.13;4.28;;;;;;;0.63;77.40;99705.34;2627333;28;20130;-78
2022/01/26 01:14:49;;;;;;;8.85;4.90;;;;;;;0.64;78.16;99708.00;2627687;28;20058;-79
2022/01/26 01:16:06;;;;;;;12.90;6.22;;;;;;;0.55;79.02;99706.00;2627804;28;20678;-79
2022/01/26 01:17:25;;;;;;;13.85;6.55;;;;;;;0.50;79.25;99701.50;2627712;28;20130;-79
2022/01/26 01:18:50;;;;;;;12.57;6.32;;;;;;;0.49;79.69;99700.66;2627824;28;20079;-78
2022/01/26 01:21:04;;;;;;;12.07;6.55;;;;;;;0.46;79.69;99694.50;2627547;28;20105;-79
2022/01/26 01:22:17;;;;;;;13.15;6.25;;;;;;;0.48;79.58;99698.88;2620137;28;20075;-80
2022/01/26 01:28:21;;;;;;;14.93;6.13;;;;;;;0.50;79.56;99696.34;2580119;28;20061;-79
2022/01/26 01:29:44;;;;;;;11.38;5.55;;;;;;;0.45;80.13;99692.75;2606081;28;20483;-79
2022/01/26 01:31:10;;;;;;;12.82;6.00;;;;;;;0.46;80.16;99694.50;2627405;28;20798;-79
2022/01/26 01:33:05;;;;;;;10.90;5.47;;;;;;;0.48;79.87;99690.28;2627773;28;20067;-78
2022/01/26 01:34:10;;;;;;;10.35;5.00;;;;;;;0.43;80.19;99694.41;2623777;28;20452;-78
2022/01/26 01:35:27;;;;;;;10.85;5.43;;;;;;;0.44;80.42;99691.00;2627301;28;20482;-79
2022/01/26 01:36:47;;;;;;;12.10;6.10;;;;;;;0.40;80.44;99684.88;2627315;28;20055;-79
2022/01/26 01:38:11;;;;;;;12.45;6.43;;;;;;;0.40;80.68;99690.03;2627478;28;20044;-82
2022/01/26 01:39:29;;;;;;;12.45;5.78;;;;;;;0.39;80.53;99683.97;2627495;28;20047;-79
2022/01/26 01:40:47;;;;;;;11.57;5.78;;;;;;;0.44;80.56;99685.84;2627005;28;20064;-81
2022/01/26 01:42:06;;;;;;;14.25;6.05;;;;;;;0.37;80.68;99687.34;2627095;28;20051;-79
2022/01/26 01:43:23;;;;;;;12.10;5.70;;;;;;;0.38;81.01;99696.84;2627156;28;20059;-80
2022/01/26 01:44:39;;;;;;;10.77;5.32;;;;;;;0.43;80.50;99690.13;2627453;28;20052;-79
2022/01/26 01:45:55;;;;;;;10.52;5.50;;;;;;;0.46;80.51;99694.50;2627088;28;20048;-79
2022/01/26 01:47:11;;;;;;;10.38;5.40;;;;;;;0.44;80.76;99691.88;2627351;28;20059;-79
2022/01/26 01:48:30;;;;;;;12.27;5.30;;;;;;;0.44;80.64;99691.88;2627321;28;20538;-78
2022/01/26 01:49:45;;;;;;;11.63;5.30;;;;;;;0.45;80.62;99690.19;2627338;28;20051;-79
2022/01/26 01:51:07;;;;;;;12.23;5.20;;;;;;;0.45;80.66;99685.88;2626937;28;20047;-79
2022/01/26 01:52:23;;;;;;;9.32;4.57;;;;;;;0.41;80.87;99689.19;2626263;28;21547;-79
2022/01/26 01:53:41;;;;;;;10.80;5.30;;;;;;;0.44;80.50;99691.88;2625835;28;20098;-78
2022/01/26 01:55:03;;;;;;;11.25;5.30;;;;;;;0.52;80.46;99694.69;2625765;28;20552;-78
2022/01/26 01:56:22;;;;;;;10.68;4.97;;;;;;;0.45;80.52;99685.03;2626405;28;20044;-79
2022/01/26 01:57:38;;;;;;;8.90;3.92;;;;;;;0.47;80.58;99685.94;2627695;28;20044;-79
2022/01/26 01:58:57;;;;;;;10.90;5.20;;;;;;;0.40;80.95;99684.88;2627221;28;20082;-79
2022/01/26 02:00:13;;;;;;;9.02;4.57;;;;;;;0.44;81.00;99680.69;2626324;28;20040;-78
2022/01/26 02:01:29;;;;;;;12.07;5.28;;;;;;;0.45;80.55;99685.88;2626630;28;20061;-79
2022/01/26 02:02:44;;;;;;;7.95;4.60;;;;;;;0.43;80.61;99684.97;2626521;28;20483;-80
2022/01/26 02:04:00;;;;;;;9.65;5.07;;;;;;;0.43;80.42;99690.13;2627352;28;20093;-79
2022/01/26 02:05:16;;;;;;;9.45;4.75;;;;;;;0.40;80.61;99683.16;2627476;28;20051;-79
2022/01/26 02:06:31;;;;;;;9.88;4.93;;;;;;;0.39;80.71;99686.56;2626841;28;20110;-79
2022/01/26 02:07:47;;;;;;;9.23;4.65;;;;;;;0.37;80.88;99683.06;2627327;28;20141;-78
2022/01/26 02:09:04;;;;;;;10.82;4.85;;;;;;;0.36;81.00;99688.19;2626855;28;20960;-80
2022/01/26 02:10:22;;;;;;;11.45;5.07;;;;;;;0.35;80.75;99684.72;2627166;28;20133;-79
2022/01/26 02:11:51;;;;;;;10.05;4.97;;;;;;;0.35;80.78;99684.72;2627091;28;20054;-80
2022/01/26 02:13:17;;;;;;;8.02;4.45;;;;;;;0.38;80.60;99686.53;2616781;28;20055;-82
2022/01/26 02:14:38;;;;;;;8.95;4.47;;;;;;;0.44;80.52;99688.44;2622067;28;20075;-80
2022/01/26 02:17:38;;;;;;;8.85;4.53;;;;;;;0.43;80.50;99684.97;2622491;28;20135;-79
2022/01/26 02:53:40;;;;;;;10.63;4.80;;;;;;;0.23;81.79;99671.41;2618857;28;20135;-80
2022/01/26 02:56:44;;;;;;;11.05;5.03;;;;;;;0.21;82.36;99670.50;2622547;28;20056;-82
2022/01/26 03:04:10;;;;;;;11.88;4.97;;;;;;;0.09;83.05;99674.41;2622003;28;20052;-79
2022/01/26 03:05:32;;;;;;;9.85;4.65;;;;;;;0.06;82.65;99678.56;2622221;28;20058;-79
2022/01/26 03:06:56;;;;;;;10.60;4.35;;;;;;;0.07;81.65;99677.75;2622086;28;20083;-79
2022/01/26 03:08:12;;;;;;;8.07;4.22;;;;;;;0.07;82.02;99676.06;2620243;28;20097;-79
2022/01/26 03:09:40;;;;;;;8.68;5.15;;;;;;;0.08;81.80;99672.66;2623637;28;20051;-79
2022/01/26 03:10:59;;;;;;;11.68;5.10;;;;;;;0.05;81.95;99675.13;2621794;28;20515;-79
2022/01/26 03:12:30;;;;;;;8.82;4.35;;;;;;;0.08;81.75;99670.06;2622070;28;20076;-79
2022/01/26 03:13:55;;;;;;;8.13;4.20;;;;;;;0.11;81.67;99670.19;2622581;28;20059;-79
2022/01/26 03:15:17;;;;;;;9.43;4.43;;;;;;;0.12;81.69;99668.50;2613381;28;20462;-80
2022/01/26 03:16:39;;;;;;;9.60;5.40;;;;;;;0.08;82.05;99672.66;2623355;28;20637;-79
2022/01/26 03:20:49;;;;;;;10.60;5.03;;;;;;;0.11;81.88;99675.31;2624371;28;20068;-82
2022/01/26 03:28:39;;;;;;;9.77;4.82;;;;;;;0.19;81.57;99677.31;2625379;28;20139;-78
2022/01/26 03:30:03;;;;;;;9.88;4.40;;;;;;;0.18;81.82;99675.56;2621560;28;20055;-79
2022/01/26 03:34:14;;;;;;;9.63;5.00;;;;;;;0.12;81.65;99669.34;2622878;28;20079;-79
2022/01/26 03:35:41;;;;;;;9.80;4.43;;;;;;;0.11;81.61;99670.19;2623688;28;20051;-79
2022/01/26 03:37:01;;;;;;;11.18;4.68;;;;;;;0.15;81.37;99676.31;2624084;28;20052;-79
2022/01/26 03:38:39;;;;;;;9.43;4.13;;;;;;;0.18;81.48;99667.81;2623164;28;20048;-80
2022/01/26 03:39:53;;;;;;;8.68;4.38;;;;;;;0.20;81.07;99669.59;2622640;28;20049;-85
2022/01/26 03:42:43;;;;;;;9.68;4.88;;;;;;;0.15;81.77;99672.88;2622241;28;20453;-78
2022/01/26 03:44:00;;;;;;;9.93;4.82;;;;;;;0.16;81.86;99674.63;2623577;28;20134;-79
2022/01/26 03:45:15;;;;;;;10.50;5.10;;;;;;;0.19;81.82;99674.72;2625132;28;20054;-81
2022/01/26 03:46:31;;;;;;;10.10;5.38;;;;;;;0.16;81.75;99667.75;2623754;28;20407;-84
2022/01/26 03:47:47;;;;;;;10.82;5.45;;;;;;;0.10;81.91;99665.84;2622884;28;20091;-79
2022/01/26 03:49:04;;;;;;;13.20;5.13;;;;;;;0.17;81.80;99664.34;2622293;28;20486;-79
2022/01/26 03:50:21;;;;;;;10.25;5.10;;;;;;;0.24;81.78;99663.75;2623142;28;20044;-80
2022/01/26 03:51:37;;;;;;;9.68;5.03;;;;;;;0.16;81.63;99672.91;2623539;28;20053;-80
2022/01/26 03:52:53;;;;;;;10.25;5.50;;;;;;;0.15;81.92;99673.75;2623362;28;20053;-79
2022/01/26 03:54:09;;;;;;;10.13;5.50;;;;;;;0.18;81.74;99667.81;2623094;28;20899;-79
2022/01/26 03:55:25;;;;;;;11.43;6.13;;;;;;;0.17;81.70;99672.09;2621844;28;20560;-79
2022/01/26 03:56:41;;;;;;;11.35;5.72;;;;;;;0.15;81.43;99670.31;2623202;28;20673;-79
2022/01/26 03:57:57;;;;;;;11.20;5.45;;;;;;;0.15;81.59;99666.00;2622464;28;20406;-80
2022/01/26 03:59:13;;;;;;;10.27;5.10;;;;;;;0.17;81.66;99669.50;2622730;28;20036;-79
2022/01/26 04:00:28;;;;;;;8.70;4.65;;;;;;;0.16;81.40;99666.91;2624348;28;20254;-79
2022/01/26 04:01:44;;;;;;;9.80;4.85;;;;;;;0.15;81.47;99660.00;2622622;28;20050;-84
2022/01/26 04:03:00;;;;;;;8.82;4.50;;;;;;;0.11;81.25;99667.59;2622994;28;20048;-79
2022/01/26 04:04:15;;;;;;;8.85;4.18;;;;;;;0.11;81.21;99661.59;2623406;28;20587;-80
2022/01/26 04:05:31;;;;;;;9.43;4.60;;;;;;;0.08;81.05;99664.06;2624481;28;20044;-80
2022/01/26 04:06:47;;;;;;;8.57;4.35;;;;;;;0.09;81.30;99664.09;2622609;28;20079;-79
2022/01/26 04:08:09;;;;;;;10.80;4.53;;;;;;;0.13;81.16;99663.38;2621861;28;20083;-79
2022/01/26 04:09:25;;;;;;;;;;;;;;;0.18;80.40;99665.25;2625480;28;20482;-79
2022/01/26 04:11:59;;;;;;;9.27;4.60;;;;;;;0.22;80.34;99661.94;2623097;28;20044;-79
2022/01/26 04:13:15;;;;;;;8.52;4.30;;;;;;;0.23;80.20;99664.59;2621878;28;20082;-79
2022/01/26 04:14:33;;;;;;;8.63;3.90;;;;;;;0.22;80.64;99670.56;2632572;28;20079;-79
2022/01/26 04:15:49;;;;;;;10.35;4.78;;;;;;;0.25;80.52;99665.50;2630682;28;20048;-79
2022/01/26 04:17:04;;;;;;;8.52;3.92;;;;;;;0.17;80.42;99664.34;2627408;28;20047;-80
2022/01/26 04:18:30;;;;;;;7.38;4.30;;;;;;;0.23;80.34;99672.31;2626253;28;20147;-79
2022/01/26 04:19:51;;;;;;;8.75;4.05;;;;;;;0.21;80.37;99667.91;2629399;28;20928;-79
2022/01/26 04:21:18;;;;;;;8.20;4.28;;;;;;;0.22;80.39;99661.94;2633093;28;20077;-79
2022/01/26 04:22:47;;;;;;;10.55;4.80;;;;;;;0.19;80.93;99669.56;2619176;28;20078;-79
2022/01/26 04:25:23;;;;;;;10.73;5.40;;;;;;;0.12;81.07;99668.50;2627940;28;20086;-80
2022/01/26 04:26:51;;;;;;;9.60;4.90;;;;;;;0.11;80.63;99670.19;2632347;28;20507;-79
2022/01/26 04:28:11;;;;;;;10.15;4.75;;;;;;;0.16;80.43;99669.47;2630011;28;20477;-79
2022/01/26 04:29:30;;;;;;;10.77;5.05;;;;;;;0.12;81.31;99664.19;2630776;28;20078;-79
2022/01/26 04:30:45;;;;;;;9.07;4.60;;;;;;;0.13;81.14;99667.66;2629471;28;20052;-78
2022/01/26 04:32:04;;;;;;;8.27;4.82;;;;;;;0.10;81.14;99665.84;2626352;28;20640;-80
2022/01/26 04:33:19;;;;;;;9.35;5.25;;;;;;;0.05;81.35;99659.69;2631919;28;20600;-78
2022/01/26 04:34:36;;;;;;;8.25;4.10;;;;;;;0.06;81.50;99661.44;2630176;28;20487;-79
2022/01/26 04:35:52;;;;;;;8.95;4.35;;;;;;;0.17;80.65;99661.78;2630033;28;20401;-79
2022/01/26 04:37:27;;;;;;;8.27;4.32;;;;;;;0.20;80.66;99656.72;2628797;28;20400;-79
2022/01/26 04:38:48;;;;;;;10.73;4.60;;;;;;;0.13;80.93;99658.22;2622088;28;20044;-80
2022/01/26 04:40:07;;;;;;;11.03;4.70;;;;;;;0.22;80.92;99654.22;2621475;28;20055;-80
2022/01/26 04:41:41;;;;;;;9.38;4.60;;;;;;;0.12;80.85;99659.03;2622301;28;20462;-79
2022/01/26 04:43:03;;;;;;;9.07;4.75;;;;;;;0.13;80.60;99658.22;2627827;28;20482;-80
2022/01/26 04:44:23;;;;;;;11.45;5.10;;;;;;;0.08;81.04;99648.63;2627997;28;20075;-80
2022/01/26 04:45:38;;;;;;;5.43;3.40;;;;;;;0.13;79.09;99650.50;2627428;28;20044;-79
2022/01/26 04:46:54;;;;;;;8.00;3.80;;;;;;;0.15;78.45;99645.41;2627809;28;20052;-79
2022/01/26 04:48:10;;;;;;;6.07;3.40;;;;;;;0.20;77.75;99650.72;2627707;28;20051;-79
2022/01/26 04:49:25;;;;;;;6.53;4.15;;;;;;;0.18;78.26;99644.66;2631835;28;20873;-80
2022/01/26 04:50:41;;;;;;;6.22;3.80;;;;;;;0.19;78.31;99646.41;2630084;28;20059;-80
2022/01/26 04:51:56;;;;;;;8.68;4.30;;;;;;;0.18;78.86;99649.78;2629245;28;20048;-79
2022/01/26 04:53:12;;;;;;;7.75;4.35;;;;;;;0.11;79.31;99647.00;2627155;28;20507;-78
2022/01/26 04:54:28;;;;;;;9.88;4.70;;;;;;;0.05;79.40;99646.81;2626250;28;20062;-78
2022/01/26 04:55:43;;;;;;;9.23;5.05;;;;;;;0.02;79.90;99640.66;2624464;28;20048;-80
2022/01/26 04:56:59;;;;;;;10.60;4.78;;;;;;;0.04;79.83;99647.63;2625512;28;20278;-85
2022/01/26 04:58:15;;;;;;;9.15;4.70;;;;;;;0.05;79.97;99646.81;2630004;28;20407;-81
2022/01/26 04:59:30;;;;;;;10.90;4.65;;;;;;;0.03;80.18;99645.00;2628853;28;20048;-80
2022/01/26 05:00:46;;;;;;;9.07;4.65;;;;;;;-0.02;79.92;99643.16;2630187;28;20996;-79
2022/01/26 05:02:01;;;;;;;9.73;4.60;;;;;;;0.03;79.96;99643.31;2630562;28;20054;-83
2022/01/26 05:03:17;;;;;;;9.40;4.63;;;;;;;0.02;80.00;99636.41;2630767;28;20138;-79
2022/01/26 05:04:33;;;;;;;6.30;4.18;;;;;;;0.05;79.53;99645.91;2631112;28;20448;-79
2022/01/26 05:05:48;;;;;;;6.90;4.18;;;;;;;0.11;79.05;99639.28;2630259;28;20070;-79
2022/01/26 05:07:04;;;;;;;10.07;4.80;;;;;;;0.12;79.23;99637.59;2631366;28;20048;-79
2022/01/26 05:08:19;;;;;;;6.75;3.95;;;;;;;0.12;79.15;99643.59;2630575;28;20044;-79
2022/01/26 05:09:35;;;;;;;6.63;3.67;;;;;;;0.16;78.13;99643.72;2629204;28;20068;-85
2022/01/26 05:10:51;;;;;;;5.75;3.30;;;;;;;0.16;77.56;99636.00;2630741;28;20442;-80
2022/01/26 05:12:08;;;;;;;6.45;3.85;;;;;;;0.13;77.85;99636.75;2631137;28;20059;-86
2022/01/26 05:13:24;;;;;;;7.53;3.65;;;;;;;0.12;78.32;99635.88;2624510;28;20574;-79
2022/01/26 05:14:42;;;;;;;5.22;3.40;;;;;;;0.07;78.94;99632.28;2631683;28;20044;-79
2022/01/26 05:15:58;;;;;;;5.78;3.53;;;;;;;0.09;78.55;99635.78;2631715;28;20406;-80
2022/01/26 05:17:14;;;;;;;6.07;3.65;;;;;;;0.05;78.59;99641.66;2631029;28;20491;-79
2022/01/26 05:18:30;;;;;;;7.15;3.83;;;;;;;0.07;78.83;99642.56;2630270;28;20083;-81
2022/01/26 05:19:47;;;;;;;6.35;3.28;;;;;;;0.11;78.49;99636.69;2632429;28;20645;-78
2022/01/26 05:21:03;;;;;;;7.45;3.72;;;;;;;0.04;78.20;99645.06;2629461;28;20071;-79
2022/01/26 05:22:18;;;;;;;6.93;3.65;;;;;;;0.14;78.15;99633.34;2629669;28;20482;-80
2022/01/26 05:23:34;;;;;;;7.07;3.80;;;;;;;0.03;78.16;99643.31;2628956;28;20065;-82
2022/01/26 05:24:50;;;;;;;5.80;3.63;;;;;;;-0.04;78.99;99638.75;2629172;28;20056;-79
2022/01/26 05:26:05;;;;;;;5.70;3.67;;;;;;;0.02;78.34;99635.53;2629665;28;20525;-79
2022/01/26 05:27:21;;;;;;;5.70;3.97;;;;;;;0.05;77.93;99643.34;2619460;28;20502;-79
2022/01/26 05:28:36;;;;;;;5.20;3.30;;;;;;;0.02;77.54;99638.09;2631062;28;20040;-79
2022/01/26 05:29:52;;;;;;;6.45;3.38;;;;;;;-0.01;77.50;99637.16;2618109;28;20044;-79
2022/01/26 05:31:08;;;;;;;5.60;3.38;;;;;;;0.07;77.28;99636.53;2622938;28;20409;-79
2022/01/26 05:32:23;;;;;;;6.93;2.80;;;;;;;0.11;76.62;99636.69;2631367;28;20048;-86
2022/01/26 05:33:39;;;;;;;4.70;2.60;;;;;;;0.07;76.25;99626.25;2629793;28;20051;-79
2022/01/26 05:34:55;;;;;;;4.95;3.10;;;;;;;0.11;76.50;99626.41;2629289;28;20047;-81
2022/01/26 05:36:11;;;;;;;4.38;2.95;;;;;;;0.11;76.23;99634.13;2628528;28;20525;-79
2022/01/26 05:37:26;;;;;;;5.53;3.50;;;;;;;0.08;76.70;99631.44;2626644;28;20044;-79
2022/01/26 05:38:42;;;;;;;4.57;2.20;;;;;;;0.02;76.38;99628.69;2627018;28;20062;-79
2022/01/26 05:39:58;;;;;;;3.60;2.47;;;;;;;0.09;76.20;99630.63;2627852;28;20048;-79
2022/01/26 05:41:14;;;;;;;4.78;2.63;;;;;;;0.12;76.18;99632.44;2629404;28;21075;-80
2022/01/26 05:42:30;;;;;;;3.97;2.50;;;;;;;0.07;76.47;99629.69;2630274;28;20052;-80
2022/01/26 05:43:46;;;;;;;3.67;2.63;;;;;;;0.06;76.29;99627.06;2630128;28;20487;-80
2022/01/26 05:45:06;;;;;;;3.03;2.28;;;;;;;0.12;75.37;99620.41;2629125;28;20070;-79
2022/01/26 05:46:30;;;;;;;3.50;2.67;;;;;;;0.12;75.74;99624.72;2627145;28;20103;-79
2022/01/26 05:47:45;;;;;;;3.00;2.47;;;;;;;0.10;76.03;99619.50;2630585;28;20604;-79
2022/01/26 05:49:01;;;;;;;6.32;2.70;;;;;;;0.12;76.78;99625.56;2631540;28;20048;-79
2022/01/26 05:50:18;;;;;;;6.75;3.03;;;;;;;0.06;76.33;99622.81;2627925;28;20079;-81
2022/01/26 05:51:34;;;;;;;4.88;2.95;;;;;;;-0.01;77.01;99619.16;2627605;28;20136;-78
2022/01/26 05:52:50;;;;;;;3.40;2.55;;;;;;;-0.02;76.95;99625.13;2630423;28;20094;-79
2022/01/26 05:54:07;;;;;;;3.28;2.30;;;;;;;-0.05;76.23;99625.03;2630803;28;20074;-79
2022/01/26 05:55:23;;;;;;;4.25;2.83;;;;;;;-0.03;76.49;99625.06;2630767;28;20055;-79
2022/01/26 05:56:42;;;;;;;5.78;3.05;;;;;;;-0.07;76.84;99618.97;2629413;28;20129;-79
2022/01/26 05:57:57;;;;;;;5.35;3.17;;;;;;;-0.12;77.16;99623.06;2630064;28;20051;-79
2022/01/26 05:59:19;;;;;;;5.63;2.88;;;;;;;-0.03;76.91;99640.50;2630867;28;20047;-80
2022/01/26 06:00:35;;;;;;;6.28;3.05;;;;;;;-0.04;76.02;99631.03;2629694;28;20559;-79
2022/01/26 06:01:51;;;;;;;4.68;2.95;;;;;;;-0.06;76.24;99627.53;2626830;28;20059;-81
2022/01/26 06:03:07;;;;;;;4.65;3.10;;;;;;;-0.01;76.30;99628.56;2629992;28;20469;-78
2022/01/26 06:04:23;;;;;;;4.05;2.53;;;;;;;0.03;75.62;99624.41;2630955;28;20051;-81
2022/01/26 06:05:38;;;;;;;4.03;2.70;;;;;;;0.00;74.31;99632.91;2626634;28;20047;-80
2022/01/26 06:06:55;;;;;;;4.68;2.75;;;;;;;-0.09;75.66;99623.16;2627260;28;20313;-79
2022/01/26 06:08:10;;;;;;;4.10;2.72;;;;;;;-0.01;76.08;99632.03;2631535;28;20055;-79
2022/01/26 06:09:26;;;;;;;4.18;2.63;;;;;;;-0.05;75.93;99624.13;2628707;28;20043;-78
2022/01/26 06:10:41;;;;;;;5.22;3.30;;;;;;;-0.07;76.99;99623.22;2626525;28;20044;-81
2022/01/26 06:11:57;;;;;;;4.47;2.92;;;;;;;-0.04;76.34;99625.88;2629972;28;20047;-79
2022/01/26 06:13:12;;;;;;;5.20;2.90;;;;;;;-0.02;76.54;99622.53;2630451;28;20063;-79
2022/01/26 06:14:28;;;;;;;5.57;3.20;;;;;;;-0.04;76.62;99613.00;2627451;28;20048;-80
2022/01/26 06:15:44;;;;;;;4.43;3.20;;;;;;;-0.06;76.52;99614.66;2631153;28;20486;-80
2022/01/26 06:17:00;;;;;;;5.90;2.90;;;;;;;-0.05;76.23;99624.13;2627239;28;20471;-79
2022/01/26 06:18:15;;;;;;;5.15;3.55;;;;;;;-0.07;76.89;99621.53;2631147;28;20059;-79
2022/01/26 06:19:31;;;;;;;4.50;2.92;;;;;;;-0.07;76.29;99620.63;2627241;28;20456;-79
2022/01/26 06:20:47;;;;;;;4.72;3.10;;;;;;;0.03;76.24;99621.81;2629493;28;20154;-81
2022/01/26 06:22:03;;;;;;;4.50;3.03;;;;;;;-0.03;75.96;99630.22;2629162;28;20052;-80
2022/01/26 06:23:26;;;;;;;4.63;2.95;;;;;;;0.01;75.07;99629.50;2626314;28;20048;-79
2022/01/26 06:24:41;;;;;;;3.90;2.33;;;;;;;-0.06;75.42;99624.97;2624443;28;20139;-79
2022/01/26 06:25:58;;;;;;;7.75;2.53;;;;;;;-0.05;74.67;99614.72;2627702;28;20067;-78
2022/01/26 06:27:13;;;;;;;3.00;2.20;;;;;;;0.02;75.20;99617.50;2628625;28;20135;-79
2022/01/26 06:28:29;;;;;;;5.50;2.50;;;;;;;-0.06;76.03;99623.28;2628133;28;20044;-85
2022/01/26 06:29:45;;;;;;;5.25;2.83;;;;;;;-0.09;75.92;99612.84;2632200;28;20051;-80
2022/01/26 06:31:09;;;;;;;7.35;3.90;;;;;;;-0.06;76.16;99625.84;2629020;28;20091;-78
2022/01/26 06:32:24;;;;;;;4.68;2.63;;;;;;;-0.08;75.74;99621.47;2629914;28;20461;-79
2022/01/26 06:33:41;;;;;;;3.70;2.47;;;;;;;-0.05;75.53;99616.41;2628996;28;20055;-81
2022/01/26 06:34:57;;;;;;;3.85;2.60;;;;;;;-0.04;75.26;99623.31;2627337;28;20479;-78
2022/01/26 06:36:14;;;;;;;6.95;2.80;;;;;;;-0.12;76.09;99611.91;2626215;28;20048;-80
2022/01/26 06:37:30;;;;;;;4.88;2.47;;;;;;;-0.03;75.30;99618.22;2626282;28;20056;-79
2022/01/26 06:38:46;;;;;;;7.20;2.88;;;;;;;-0.06;75.11;99615.56;2626489;28;20051;-79
2022/01/26 06:40:03;;;;;;;5.60;2.90;;;;;;;0.02;75.18;99610.66;2626324;28;20040;-78
2022/01/26 06:41:24;;;;;;;6.90;3.40;;;;;;;-0.06;76.16;99614.66;2626649;28;20052;-79
2022/01/26 06:42:53;;;;;;;4.82;3.20;;;;;;;-0.11;76.83;99617.06;2631723;28;20625;-81
2022/01/26 06:44:24;;;;;;;5.20;3.35;;;;;;;-0.18;76.98;99613.41;2628340;28;20044;-79
2022/01/26 06:45:49;;;;;;;5.35;3.40;;;;;;;-0.18;76.82;99613.41;2628202;28;20101;-87
2022/01/26 06:49:53;;;;;;;4.47;2.72;;;;;;;-0.09;76.04;99610.28;2633114;28;20043;-83
2022/01/26 06:51:11;;;;;;;4.82;3.00;;;;;;;-0.08;76.15;99608.59;2632161;28;20075;-82
2022/01/26 06:52:27;;;;;;;4.88;3.17;;;;;;;-0.08;76.85;99619.75;2632914;28;20050;-82
2022/01/26 06:53:42;;;;;;;4.22;3.20;;;;;;;-0.09;76.35;99618.00;2630649;28;20135;-83
2022/01/26 06:54:58;;;;;;;4.70;2.85;;;;;;;-0.09;76.56;99618.00;2626496;28;20398;-83
2022/01/26 06:56:13;;;;;;;4.68;2.53;;;;;;;-0.12;76.48;99617.03;2627218;28;20410;-83
2022/01/26 06:57:29;;;;;;;6.03;3.17;;;;;;;-0.10;76.42;99616.25;2628102;28;20071;-82
2022/01/26 06:58:45;;;;;;;4.80;2.88;;;;;;;-0.11;76.67;99618.78;2629053;28;20094;-83
2022/01/26 07:00:00;;;;;;;3.78;2.72;;;;;;;-0.11;75.70;99614.50;2629669;28;20418;-82
2022/01/26 07:01:16;;;;;;;3.55;2.45;;;;;;;-0.01;76.04;99615.69;2632455;28;20063;-83
2022/01/26 07:02:31;;;;;;;5.20;2.85;;;;;;;-0.14;76.49;99622.13;2631383;28;20142;-83
2022/01/26 07:03:47;;;;;;;4.65;2.95;;;;;;;-0.17;76.40;99620.31;2632507;28;20521;-83
2022/01/26 07:05:03;;;;;;;4.03;3.05;;;;;;;-0.13;76.73;99616.16;2628503;28;20075;-84
2022/01/26 07:06:19;;;;;;;5.38;2.78;;;;;;;-0.02;75.83;99613.94;2626637;28;20044;-83
2022/01/26 07:07:35;;;;;;;5.78;3.15;;;;;;;-0.07;76.57;99620.63;2628528;28;20155;-83
2022/01/26 07:08:51;;;;;;;5.47;2.85;;;;;;;-0.07;75.69;99615.50;2628288;28;20091;-83
2022/01/26 07:10:08;;;;;;;12.00;2.75;;;;;;;-0.02;75.83;99616.50;2628816;28;20044;-85
2022/01/26 07:11:24;;;;;;;10.60;3.00;;;;;;;-0.09;76.20;99618.00;2621057;28;20410;-85
2022/01/26 07:12:40;;;;;;;5.38;3.45;;;;;;;-0.09;76.45;99618.00;2625339;28;20071;-83
2022/01/26 07:13:58;;;;;;;9.13;3.90;;;;;;;-0.16;76.87;99616.91;2629324;28;20257;-84
2022/01/26 07:21:36;;;;;;;57.60;8.93;;;;;;;-0.05;77.09;99606.13;2595101;28;20405;-83
2022/01/26 07:22:52;;;;;;;23.48;4.80;;;;;;;-0.09;76.94;99610.28;2629523;28;20055;-84
2022/01/26 07:24:07;;;;;;;10.90;3.90;;;;;;;-0.07;76.02;99603.50;2632687;28;21005;-84
2022/01/26 07:25:23;;;;;;;6.18;2.70;;;;;;;-0.03;75.61;99613.06;2632571;28;20052;-83
2022/01/26 07:26:39;;;;;;;5.22;3.05;;;;;;;-0.02;75.47;99607.09;2632059;28;20108;-82
2022/01/26 07:27:56;;;;;;;6.28;3.20;;;;;;;-0.05;76.00;99603.53;2630641;28;20138;-82
2022/01/26 07:29:14;;;;;;;4.40;2.90;;;;;;;-0.14;76.14;99601.53;2632429;28;20348;-85
2022/01/26 07:30:31;;;;;;;11.18;3.53;;;;;;;-0.12;76.45;99599.03;2631874;28;20058;-83
2022/01/26 07:31:48;;;;;;;35.85;5.90;;;;;;;-0.15;77.01;99607.50;2633640;28;20131;-83
2022/01/26 07:33:05;;;;;;;12.93;4.10;;;;;;;-0.15;77.05;99616.09;2633464;28;20482;-84
2022/01/26 07:34:23;;;;;;;17.33;3.88;;;;;;;-0.08;76.56;99619.75;2630738;28;20044;-83
2022/01/26 07:35:39;;;;;;;19.90;4.28;;;;;;;-0.04;76.90;99613.00;2633342;28;20051;-83
2022/01/26 07:37:00;;;;;;;6.38;3.03;;;;;;;-0.06;76.38;99628.44;2629637;28;20403;-83
2022/01/26 07:38:15;;;;;;;5.97;3.03;;;;;;;-0.11;75.83;99623.94;2615754;28;20281;-83
2022/01/26 07:40:16;;;;;;;3.28;2.40;;;;;;;-0.08;75.21;99618.88;2623672;28;20048;-83
2022/01/26 07:41:07;;;;;;;5.35;2.50;;;;;;;-0.04;74.37;99625.88;2616757;28;20509;-82
2022/01/26 07:42:22;;;;;;;4.97;2.78;;;;;;;-0.02;74.34;99634.53;2626201;28;20071;-82
2022/01/26 07:43:38;;;;;;;4.72;2.20;;;;;;;-0.02;74.11;99631.97;2626802;28;20214;-87